Terminal Aerodrome Forecast
Issued by NWS

Home | Current Version | Previous Version | Text Only | Print | Product List | Glossary On
Versions: 1 2 3 4 5 6 7 8 9 10 11 12 13 14
187
FTUS43 KDLH 280251 AAA
TAFBRD
TAF AMD
KBRD 280251Z 2803/2824 07013G21KT P6SM VCSH SCT080 OVC100
     FM281400 06011G18KT P6SM OVC080=

USA.gov is the U.S. government's official web portal to all federal, state and local government web resources and services.